Time;durP1;ratioP1;P1;durP2;ratioP2;P2;SDS_P1;SDS_P2;PMS_P1;PMS_P2;Temp;Humidity;BMP_temperature;BMP_pressure;BME280_temperature;BME280_humidity;BME280_pressure;Samples;Min_cycle;Max_cycle;Signal;HPM_P1;HPM_P2
2021/10/16 00:01:16;;;;;;;76.80;34.88;;;;;;;1.86;100.00;101335.45;1750014;82;20983;-43
2021/10/16 00:03:42;;;;;;;73.97;29.65;;;;;;;1.81;100.00;101331.89;1750233;82;20980;-43
2021/10/16 00:06:09;;;;;;;64.65;29.87;;;;;;;1.78;100.00;101336.52;1749921;82;21082;-43
2021/10/16 00:08:36;;;;;;;67.62;31.07;;;;;;;1.79;100.00;101339.52;1750204;81;20932;-43
2021/10/16 00:11:02;;;;;;;82.75;35.52;;;;;;;1.82;100.00;101335.78;1749993;82;20975;-43
2021/10/16 00:13:29;;;;;;;80.57;32.55;;;;;;;1.86;100.00;101327.80;1750071;82;20865;-43
2021/10/16 00:15:55;;;;;;;67.67;26.27;;;;;;;1.91;100.00;101321.17;1750020;82;20921;-43
2021/10/16 00:18:21;;;;;;;74.58;27.98;;;;;;;1.96;100.00;101322.17;1749866;82;21077;-43
2021/10/16 00:20:48;;;;;;;57.93;23.50;;;;;;;1.98;100.00;101319.25;1750020;82;21022;-43
2021/10/16 00:23:14;;;;;;;62.90;26.37;;;;;;;2.01;100.00;101312.95;1750341;82;20913;-43
2021/10/16 00:25:42;;;;;;;56.95;26.48;;;;;;;2.04;100.00;101312.20;1750073;82;20916;-43
2021/10/16 00:28:09;;;;;;;63.40;26.37;;;;;;;2.06;100.00;101301.61;1750277;82;20865;-43
2021/10/16 00:30:37;;;;;;;59.95;26.25;;;;;;;2.10;100.00;101301.27;1750011;82;21498;-43
2021/10/16 00:33:03;;;;;;;57.80;28.57;;;;;;;2.10;100.00;101298.72;1750340;82;21509;-43
2021/10/16 00:35:30;;;;;;;79.60;30.05;;;;;;;2.09;100.00;101291.48;1750170;82;20888;-43
2021/10/16 00:37:57;;;;;;;72.37;29.70;;;;;;;2.10;100.00;101284.28;1749956;82;20932;-43
2021/10/16 00:40:24;;;;;;;64.47;31.35;;;;;;;2.10;100.00;101288.11;1747852;82;21044;-43
2021/10/16 00:42:52;;;;;;;85.40;35.65;;;;;;;2.13;100.00;101288.59;1735971;82;21175;-45
2021/10/16 00:45:23;;;;;;;79.42;37.60;;;;;;;2.12;100.00;101279.19;1736189;82;20968;-44
2021/10/16 00:47:49;;;;;;;69.35;35.17;;;;;;;2.12;100.00;101286.46;1736045;82;20927;-43
2021/10/16 00:50:18;;;;;;;66.25;31.68;;;;;;;2.11;100.00;101281.30;1735953;82;20948;-44
2021/10/16 00:52:45;;;;;;;97.70;47.53;;;;;;;2.12;100.00;101285.58;1735999;82;21406;-44
2021/10/16 00:55:15;;;;;;;91.17;41.50;;;;;;;2.15;100.00;101284.42;1739527;82;20983;-43
2021/10/16 00:57:45;;;;;;;75.65;35.65;;;;;;;2.17;100.00;101287.88;1735943;82;20916;-44
2021/10/16 01:00:13;;;;;;;65.92;31.52;;;;;;;2.20;100.00;101286.70;1736352;82;21016;-43
2021/10/16 01:02:40;;;;;;;61.33;30.35;;;;;;;2.24;100.00;101277.02;1736159;82;20956;-43
2021/10/16 01:05:08;;;;;;;61.02;29.30;;;;;;;2.32;100.00;101275.08;1736485;82;20961;-44
2021/10/16 01:07:37;;;;;;;75.17;31.40;;;;;;;2.38;100.00;101272.70;1736151;82;21137;-44
2021/10/16 01:10:06;;;;;;;58.48;25.23;;;;;;;2.43;100.00;101283.94;1736345;82;20889;-44
2021/10/16 01:12:34;;;;;;;65.05;29.87;;;;;;;2.47;100.00;101282.31;1736044;81;20933;-44
2021/10/16 01:15:06;;;;;;;65.40;33.28;;;;;;;2.49;100.00;101278.11;1736118;82;20874;-44
2021/10/16 01:17:34;;;;;;;66.97;30.50;;;;;;;2.53;100.00;101279.95;1736279;82;21022;-44
2021/10/16 01:20:15;;;;;;;63.85;28.70;;;;;;;2.55;100.00;101270.64;1736374;81;21042;-43
2021/10/16 01:22:42;;;;;;;57.75;30.02;;;;;;;2.53;100.00;101273.14;1735780;82;20929;-44
2021/10/16 01:25:15;;;;;;;69.12;34.18;;;;;;;2.50;100.00;101278.56;1736127;82;20886;-44
2021/10/16 01:27:42;;;;;;;78.85;35.05;;;;;;;2.49;100.00;101273.00;1736199;82;20893;-44
2021/10/16 01:30:11;;;;;;;69.03;31.12;;;;;;;2.47;100.00;101266.98;1736288;82;20865;-44
2021/10/16 01:32:40;;;;;;;57.25;27.22;;;;;;;2.46;100.00;101269.08;1736160;82;21149;-44
2021/10/16 01:35:09;;;;;;;59.53;29.63;;;;;;;2.44;100.00;101264.80;1736031;82;20885;-44
2021/10/16 01:37:44;;;;;;;54.35;25.50;;;;;;;2.44;100.00;101258.41;1736372;82;20941;-44
2021/10/16 01:40:12;;;;;;;47.78;24.50;;;;;;;2.43;100.00;101260.51;1735102;82;20961;-44
2021/10/16 01:42:42;;;;;;;49.90;24.37;;;;;;;2.44;100.00;101261.39;1743699;81;20921;-44
2021/10/16 01:45:15;;;;;;;46.35;21.07;;;;;;;2.47;100.00;101270.81;1744334;82;21143;-44
2021/10/16 01:47:53;;;;;;;45.30;21.75;;;;;;;2.49;100.00;101275.55;1743692;82;20999;-44
2021/10/16 01:50:22;;;;;;;38.17;19.50;;;;;;;2.54;100.00;101272.31;1743754;81;21458;-44
2021/10/16 01:52:48;;;;;;;43.60;19.75;;;;;;;2.57;100.00;101260.89;1744692;82;20980;-43
2021/10/16 01:55:15;;;;;;;46.80;22.62;;;;;;;2.63;100.00;101252.92;1715137;82;21003;-44
2021/10/16 01:57:41;;;;;;;51.23;23.02;;;;;;;2.68;100.00;101251.38;1715250;82;21191;-43
2021/10/16 02:00:10;;;;;;;57.48;25.27;;;;;;;2.73;100.00;101242.14;1744164;82;20881;-44
2021/10/16 02:02:37;;;;;;;46.30;22.75;;;;;;;2.85;100.00;101241.59;1744590;82;21448;-44
2021/10/16 02:05:22;;;;;;;42.27;19.80;;;;;;;2.85;100.00;101241.59;1744225;81;20972;-43
2021/10/16 02:07:50;;;;;;;47.08;22.30;;;;;;;2.94;100.00;101243.53;1742827;82;20838;-44
2021/10/16 02:10:18;;;;;;;41.05;21.68;;;;;;;3.00;100.00;101239.41;1744290;81;21666;-44
2021/10/16 02:12:45;;;;;;;39.13;21.45;;;;;;;3.06;100.00;101241.27;1744430;82;21533;-44
2021/10/16 02:15:12;;;;;;;39.42;19.85;;;;;;;3.10;100.00;101240.94;1744082;82;20960;-44
2021/10/16 02:17:40;;;;;;;40.67;19.05;;;;;;;3.15;100.00;101236.37;1742015;82;20913;-44
2021/10/16 02:20:10;;;;;;;35.65;19.12;;;;;;;3.20;100.00;101238.20;1744514;82;20853;-44
2021/10/16 02:22:37;;;;;;;45.63;21.05;;;;;;;3.24;100.00;101242.56;1744341;82;21143;-44
2021/10/16 02:25:05;;;;;;;43.17;20.90;;;;;;;3.25;100.00;101243.01;1744132;81;20921;-44
2021/10/16 02:27:31;;;;;;;38.08;19.73;;;;;;;3.28;100.00;101245.64;1744537;82;20921;-44
2021/10/16 02:30:00;;;;;;;43.23;21.10;;;;;;;3.32;100.00;101235.92;1744375;81;20969;-44
2021/10/16 02:32:27;;;;;;;46.45;20.52;;;;;;;3.36;100.00;101237.72;1744685;82;20929;-43
2021/10/16 02:34:53;;;;;;;40.38;19.90;;;;;;;3.38;100.00;101232.22;1744215;82;21018;-43
2021/10/16 02:37:21;;;;;;;35.80;21.20;;;;;;;3.40;100.00;101236.95;1744518;82;20981;-44
2021/10/16 02:39:47;;;;;;;47.65;24.45;;;;;;;3.40;100.00;101240.80;1744377;82;21545;-44
2021/10/16 02:42:14;;;;;;;41.73;24.80;;;;;;;3.41;100.00;101246.40;1738907;81;20968;-43
2021/10/16 02:44:42;;;;;;;61.08;31.35;;;;;;;3.44;100.00;101235.34;1715219;82;20889;-43
2021/10/16 02:47:08;;;;;;;63.33;31.02;;;;;;;3.46;100.00;101232.41;1736213;82;21931;-44
2021/10/16 02:49:35;;;;;;;62.03;31.80;;;;;;;3.47;100.00;101226.89;1736182;82;22543;-44
2021/10/16 02:52:04;;;;;;;52.60;28.15;;;;;;;3.45;100.00;101228.12;1736290;82;20989;-44
2021/10/16 02:54:31;;;;;;;47.35;24.23;;;;;;;3.43;100.00;101234.50;1736140;81;20873;-44
2021/10/16 02:56:59;;;;;;;90.75;38.95;;;;;;;3.43;100.00;101233.63;1736116;82;21420;-44
2021/10/16 02:59:25;;;;;;;115.65;48.00;;;;;;;3.44;100.00;101241.75;1736173;82;21780;-44
2021/10/16 03:01:53;;;;;;;97.42;42.17;;;;;;;3.46;100.00;101245.20;1735901;82;21004;-44
2021/10/16 03:04:21;;;;;;;72.17;32.88;;;;;;;3.48;100.00;101243.98;1735944;82;20897;-44
2021/10/16 03:06:48;;;;;;;41.25;22.25;;;;;;;3.50;100.00;101242.31;1736222;82;20909;-44
2021/10/16 03:09:17;;;;;;;50.60;24.67;;;;;;;3.51;100.00;101237.64;1736334;82;20995;-44
2021/10/16 03:11:44;;;;;;;48.58;25.12;;;;;;;3.51;100.00;101242.33;1735948;82;21144;-43
2021/10/16 03:14:10;;;;;;;45.25;22.32;;;;;;;3.52;100.00;101238.09;1736126;82;20998;-44
2021/10/16 03:16:38;;;;;;;39.98;20.95;;;;;;;3.54;100.00;101238.59;1715146;82;20981;-44
2021/10/16 03:19:07;;;;;;;38.05;21.20;;;;;;;3.56;100.00;101239.48;1736089;82;20925;-44
2021/10/16 03:21:35;;;;;;;40.67;20.60;;;;;;;3.58;100.00;101230.55;1736125;81;21069;-44
2021/10/16 03:24:05;;;;;;;46.90;22.95;;;;;;;3.59;100.00;101227.16;1736316;82;21123;-44
2021/10/16 03:26:33;;;;;;;44.05;22.00;;;;;;;3.59;100.00;101231.88;1736072;82;21552;-43
2021/10/16 03:29:00;;;;;;;43.45;20.05;;;;;;;3.59;100.00;101236.12;1736215;82;21383;-44
2021/10/16 03:31:27;;;;;;;41.90;21.33;;;;;;;3.59;100.00;101237.39;1736021;82;20933;-44
2021/10/16 03:33:53;;;;;;;42.35;19.75;;;;;;;3.59;100.00;101235.72;1739776;82;21001;-43
2021/10/16 03:36:21;;;;;;;36.93;20.02;;;;;;;3.61;100.00;101247.25;1736010;82;21408;-43
2021/10/16 03:38:47;;;;;;;37.53;20.17;;;;;;;3.61;100.00;101247.25;1736258;82;20882;-43
2021/10/16 03:41:14;;;;;;;37.90;20.15;;;;;;;3.63;100.00;101243.03;1735964;81;20984;-43
2021/10/16 03:43:42;;;;;;;39.85;21.10;;;;;;;3.66;100.00;101230.30;1736106;82;20872;-44
2021/10/16 03:46:09;;;;;;;44.30;19.67;;;;;;;3.69;100.00;101221.83;1739715;82;20932;-44
2021/10/16 03:48:35;;;;;;;44.38;23.40;;;;;;;3.69;100.00;101229.11;1736008;82;21771;-44
2021/10/16 03:51:02;;;;;;;52.55;25.37;;;;;;;3.70;100.00;101224.44;1736056;82;21483;-43
2021/10/16 03:53:31;;;;;;;54.80;26.65;;;;;;;3.71;100.00;101223.61;1735967;82;20919;-43
2021/10/16 03:55:57;;;;;;;40.10;22.15;;;;;;;3.73;100.00;101228.34;1715501;82;20949;-43
2021/10/16 03:58:24;;;;;;;45.48;22.48;;;;;;;3.78;100.00;101233.55;1736035;82;21008;-43
2021/10/16 04:00:53;;;;;;;36.38;20.68;;;;;;;3.81;100.00;101231.08;1736090;81;22078;-43
2021/10/16 04:03:19;;;;;;;44.98;22.20;;;;;;;3.85;100.00;101238.00;1735987;82;20893;-43
2021/10/16 04:05:48;;;;;;;43.42;21.70;;;;;;;3.92;100.00;101235.55;1735892;81;20850;-43
2021/10/16 04:08:14;;;;;;;36.53;20.97;;;;;;;3.97;100.00;101245.08;1736335;82;20933;-44
2021/10/16 04:10:40;;;;;;;44.88;19.17;;;;;;;4.00;100.00;101240.02;1736046;82;20913;-43
2021/10/16 04:13:08;;;;;;;36.10;20.77;;;;;;;4.03;100.00;101234.95;1736298;82;21973;-44
2021/10/16 04:15:37;;;;;;;38.08;19.48;;;;;;;4.09;100.00;101227.82;1739145;82;20980;-43
2021/10/16 04:18:05;;;;;;;39.98;19.82;;;;;;;4.12;100.00;101221.47;1735957;82;20986;-43
2021/10/16 04:20:33;;;;;;;39.25;18.98;;;;;;;4.17;100.00;101221.58;1735910;82;21435;-43
2021/10/16 04:22:59;;;;;;;41.30;19.37;;;;;;;4.19;100.00;101226.31;1735948;82;21422;-43
2021/10/16 04:25:28;;;;;;;35.78;18.90;;;;;;;4.22;100.00;101226.77;1736223;82;22967;-44
2021/10/16 04:27:55;;;;;;;35.08;19.62;;;;;;;4.25;100.00;101232.84;1715163;82;21020;-44
2021/10/16 04:30:24;;;;;;;45.38;18.65;;;;;;;4.27;100.00;101227.72;1735507;82;21513;-43
2021/10/16 04:32:50;;;;;;;49.23;20.15;;;;;;;4.29;100.00;101228.22;1736024;82;20886;-43
2021/10/16 04:35:17;;;;;;;58.98;20.95;;;;;;;4.31;100.00;101222.70;1736100;82;20917;-44
2021/10/16 04:37:44;;;;;;;52.13;22.32;;;;;;;4.35;100.00;101219.79;1735982;82;21132;-44
2021/10/16 04:40:20;;;;;;;44.15;20.95;;;;;;;4.38;100.00;101217.28;1736097;81;21020;-43
2021/10/16 04:42:49;;;;;;;51.92;21.82;;;;;;;4.42;100.00;101210.49;1736323;81;20925;-43
2021/10/16 04:45:17;;;;;;;49.45;24.32;;;;;;;4.45;100.00;101205.45;1736010;82;20885;-44
2021/10/16 04:47:45;;;;;;;43.20;26.25;;;;;;;4.48;100.00;101200.38;1736179;82;21494;-44
2021/10/16 04:50:12;;;;;;;46.65;24.25;;;;;;;4.53;100.00;101204.28;1735995;82;21823;-43
2021/10/16 04:52:40;;;;;;;47.23;21.90;;;;;;;4.57;100.00;101195.41;1736042;81;20877;-43
2021/10/16 04:55:09;;;;;;;52.10;22.70;;;;;;;4.60;100.00;101193.33;1735877;82;20930;-43
2021/10/16 04:58:16;;;;;;;58.92;20.90;;;;;;;4.68;100.00;101194.31;1798535;79;23235;-42
2021/10/16 05:00:44;;;;;;;43.08;22.15;;;;;;;4.69;100.00;101201.61;1758408;81;20908;-42
2021/10/16 05:03:13;;;;;;;55.85;20.77;;;;;;;4.73;100.00;101213.65;1758228;81;21999;-43
2021/10/16 05:05:39;;;;;;;48.85;19.77;;;;;;;4.79;100.00;101212.47;1738993;81;20995;-43
2021/10/16 05:08:08;;;;;;;48.83;19.65;;;;;;;4.84;100.00;101203.58;1758107;81;20849;-43
2021/10/16 05:10:35;;;;;;;42.65;19.75;;;;;;;4.93;100.00;101213.14;1758146;81;20936;-43
2021/10/16 05:13:02;;;;;;;41.00;19.32;;;;;;;4.99;100.00;101204.25;1739003;81;20979;-43
2021/10/16 05:15:28;;;;;;;49.67;19.57;;;;;;;5.04;100.00;101199.61;1758305;81;21320;-43
2021/10/16 05:17:57;;;;;;;49.70;23.65;;;;;;;5.11;100.00;101195.89;1758181;81;21403;-43
2021/10/16 05:20:27;;;;;;;59.75;27.17;;;;;;;5.18;100.00;101193.85;1758201;81;20929;-43
2021/10/16 05:22:54;;;;;;;58.00;23.30;;;;;;;5.23;100.00;101189.65;1758121;81;20889;-43
2021/10/16 05:25:21;;;;;;;44.40;21.80;;;;;;;5.29;100.00;101187.61;1758339;81;20964;-43
2021/10/16 05:27:49;;;;;;;46.28;21.42;;;;;;;5.31;100.00;101184.64;1758338;81;21095;-43
2021/10/16 05:30:17;;;;;;;47.93;19.20;;;;;;;5.35;100.00;101181.70;1738937;81;21478;-44
2021/10/16 05:32:44;;;;;;;46.75;18.17;;;;;;;5.39;100.00;101183.03;1758406;81;20837;-44
2021/10/16 05:35:12;;;;;;;38.60;18.77;;;;;;;5.44;100.00;101183.99;1758140;81;21458;-44
2021/10/16 05:37:41;;;;;;;52.55;25.60;;;;;;;5.50;100.00;101186.20;1739009;81;20952;-44
2021/10/16 05:40:09;;;;;;;58.25;24.02;;;;;;;5.57;100.00;101186.72;1758211;81;21157;-44
2021/10/16 05:42:35;;;;;;;53.20;25.85;;;;;;;5.61;100.00;101176.92;1739435;81;20885;-44
2021/10/16 05:45:02;;;;;;;68.05;30.48;;;;;;;5.66;100.00;101170.58;1758146;81;20925;-42
2021/10/16 05:47:31;;;;;;;56.83;28.20;;;;;;;5.71;100.00;101169.80;1758147;81;20952;-42
2021/10/16 05:49:58;;;;;;;54.88;27.17;;;;;;;5.73;100.00;101174.53;1758583;81;20988;-43
2021/10/16 05:52:25;;;;;;;53.50;25.75;;;;;;;5.77;99.93;101172.84;1751310;81;21344;-44
2021/10/16 05:54:52;;;;;;;51.77;24.55;;;;;;;5.80;99.69;101168.19;1749898;82;20924;-44
2021/10/16 05:57:19;;;;;;;38.95;21.93;;;;;;;5.84;99.53;101168.66;1750293;81;21529;-44
2021/10/16 05:59:46;;;;;;;38.08;21.68;;;;;;;5.86;99.37;101171.70;1723241;82;20893;-44
2021/10/16 06:02:13;;;;;;;42.98;22.77;;;;;;;5.90;99.25;101176.03;1723253;82;21569;-44
2021/10/16 06:04:39;;;;;;;35.98;20.57;;;;;;;5.95;99.12;101175.22;1723124;82;20980;-44
2021/10/16 06:07:06;;;;;;;41.08;21.82;;;;;;;6.00;99.09;101176.13;1750921;82;20929;-44
2021/10/16 06:09:34;;;;;;;40.73;23.12;;;;;;;6.08;99.08;101189.99;1750123;82;20881;-44
2021/10/16 06:12:00;;;;;;;34.08;20.92;;;;;;;6.16;98.93;101193.91;1750324;82;21039;-44
2021/10/16 06:14:27;;;;;;;37.45;20.65;;;;;;;6.25;98.75;101195.73;1750254;82;20885;-45
2021/10/16 06:16:55;;;;;;;35.28;20.45;;;;;;;6.33;98.49;101185.13;1750559;82;21130;-43
2021/10/16 06:19:22;;;;;;;36.68;20.35;;;;;;;6.40;98.36;101186.03;1750193;82;20845;-43
2021/10/16 06:21:48;;;;;;;51.10;22.65;;;;;;;6.50;98.21;101190.44;1750339;82;20963;-43
2021/10/16 06:24:15;;;;;;;37.78;20.92;;;;;;;6.59;97.86;101190.52;1722788;82;20995;-43
2021/10/16 06:26:44;;;;;;;48.75;21.12;;;;;;;6.73;97.58;101193.67;1749723;82;20857;-44
2021/10/16 06:29:10;;;;;;;28.98;19.42;;;;;;;6.86;97.08;101189.49;1750374;82;21080;-44
2021/10/16 06:31:37;;;;;;;36.48;20.20;;;;;;;7.00;96.75;101184.46;1750186;82;21362;-44
2021/10/16 06:34:04;;;;;;;35.75;18.60;;;;;;;7.10;96.32;101182.83;1750093;82;21429;-44
2021/10/16 06:36:30;;;;;;;35.10;18.57;;;;;;;7.22;95.81;101180.33;1750343;82;21000;-45
2021/10/16 06:38:57;;;;;;;32.48;19.02;;;;;;;7.32;95.28;101173.52;1750452;82;20905;-42
2021/10/16 06:41:24;;;;;;;30.15;17.42;;;;;;;7.43;94.73;101186.03;1750222;81;21073;-43
2021/10/16 06:44:09;;;;;;;33.92;16.70;;;;;;;7.54;94.54;101182.68;1750131;82;20841;-42
2021/10/16 06:46:43;;;;;;;28.52;18.15;;;;;;;7.67;94.21;101195.20;1747554;82;20959;-43
2021/10/16 06:49:11;;;;;;;32.30;17.05;;;;;;;7.79;93.35;101191.39;1722652;82;20956;-43
2021/10/16 06:51:39;;;;;;;33.35;18.17;;;;;;;7.90;92.48;101190.15;1750116;81;20925;-44
2021/10/16 06:54:06;;;;;;;42.30;17.75;;;;;;;8.01;91.64;101191.07;1750162;82;21136;-44
2021/10/16 06:56:33;;;;;;;33.63;19.27;;;;;;;8.14;90.86;101180.78;1750061;80;20949;-44
2021/10/16 06:58:59;;;;;;;27.77;17.07;;;;;;;8.30;89.96;101177.41;1750173;82;21036;-45
2021/10/16 07:01:27;;;;;;;26.37;16.05;;;;;;;8.43;88.36;101174.84;1750163;82;20904;-42
2021/10/16 07:03:55;;;;;;;30.05;16.73;;;;;;;8.58;87.30;101172.73;1722345;82;20916;-43
2021/10/16 07:06:22;;;;;;;29.35;17.62;;;;;;;8.71;86.36;101168.04;1750359;82;21815;-44
2021/10/16 07:08:49;;;;;;;33.53;17.42;;;;;;;8.83;85.86;101163.31;1722643;82;21019;-44
2021/10/16 07:11:15;;;;;;;37.90;18.60;;;;;;;8.96;85.47;101159.42;1750235;82;21391;-43
2021/10/16 07:13:42;;;;;;;32.35;16.93;;;;;;;9.11;84.33;101163.74;1750325;82;21382;-43
2021/10/16 07:16:10;;;;;;;27.60;17.57;;;;;;;9.26;83.24;101165.00;1722752;82;21546;-43
2021/10/16 07:18:38;;;;;;;33.08;18.10;;;;;;;9.40;82.20;101163.67;1750530;82;21093;-43
2021/10/16 07:21:05;;;;;;;37.38;18.82;;;;;;;9.58;81.20;101161.47;1750081;82;20873;-43
2021/10/16 07:23:32;;;;;;;32.50;19.80;;;;;;;9.74;80.18;101154.55;1750063;82;20892;-43
2021/10/16 07:25:59;;;;;;;34.10;19.60;;;;;;;9.92;78.98;101152.73;1750098;82;20968;-43
2021/10/16 07:28:26;;;;;;;36.25;20.30;;;;;;;10.06;77.04;101147.06;1750110;82;20904;-42
2021/10/16 07:30:52;;;;;;;36.15;20.35;;;;;;;10.23;76.27;101140.95;1750041;82;21137;-43
2021/10/16 07:33:19;;;;;;;32.95;18.07;;;;;;;10.38;75.62;101136.53;1750198;81;21385;-43
2021/10/16 07:35:45;;;;;;;32.05;18.35;;;;;;;10.51;74.81;101140.80;1750243;82;21458;-45
2021/10/16 07:38:12;;;;;;;40.33;19.05;;;;;;;10.63;75.11;101141.14;1750150;82;21034;-44
2021/10/16 07:40:39;;;;;;;31.50;17.67;;;;;;;10.79;74.36;101144.47;1750079;82;21003;-44
2021/10/16 07:43:05;;;;;;;32.95;17.45;;;;;;;10.95;73.80;101144.31;1750148;82;21430;-45
2021/10/16 07:45:32;;;;;;;34.03;18.55;;;;;;;11.10;73.27;101142.88;1750170;82;21533;-44
2021/10/16 07:47:59;;;;;;;38.80;19.02;;;;;;;11.25;72.27;101144.46;1750384;82;21510;-43
2021/10/16 07:50:26;;;;;;;38.55;19.15;;;;;;;11.35;71.29;101138.30;1750153;82;20901;-43
2021/10/16 07:52:52;;;;;;;44.48;18.85;;;;;;;11.46;71.10;101139.92;1749920;82;21430;-44
2021/10/16 07:55:20;;;;;;;46.58;18.98;;;;;;;11.56;70.73;101138.09;1750108;82;21191;-44
2021/10/16 07:57:46;;;;;;;46.60;18.85;;;;;;;11.55;70.23;101136.38;1725796;81;20976;-45
2021/10/16 08:00:13;;;;;;;51.28;19.55;;;;;;;11.58;70.03;101136.34;1757788;81;20913;-44
2021/10/16 08:02:40;;;;;;;45.35;19.37;;;;;;;11.58;69.54;101128.56;1704762;81;20991;-44
2021/10/16 08:05:08;;;;;;;41.65;18.20;;;;;;;11.69;68.69;101131.86;1757798;81;20920;-44
2021/10/16 08:07:34;;;;;;;52.98;18.45;;;;;;;11.64;66.93;101131.07;1757901;81;21073;-44
2021/10/16 08:10:01;;;;;;;38.53;17.67;;;;;;;11.59;67.57;101129.81;1757717;81;20877;-44
2021/10/16 08:12:30;;;;;;;38.05;17.65;;;;;;;11.64;67.65;101124.59;1730372;81;20896;-43
2021/10/16 08:14:58;;;;;;;37.50;19.50;;;;;;;11.59;66.77;101127.68;1757861;81;20987;-43
2021/10/16 08:17:25;;;;;;;42.33;19.87;;;;;;;11.58;66.26;101123.38;1728945;81;21411;-44
2021/10/16 08:19:52;;;;;;;39.63;17.27;;;;;;;11.64;66.94;101127.18;1757965;81;21130;-43
2021/10/16 08:22:19;;;;;;;32.13;17.67;;;;;;;11.75;66.72;101132.23;1728631;81;21011;-44
2021/10/16 08:24:46;;;;;;;56.90;19.32;;;;;;;11.84;65.99;101125.63;1728871;81;20916;-44
2021/10/16 08:27:13;;;;;;;55.45;18.95;;;;;;;12.02;65.93;101118.52;1757720;81;21080;-45
2021/10/16 08:29:40;;;;;;;39.00;18.90;;;;;;;12.18;65.99;101112.66;1758161;81;21449;-42
2021/10/16 08:32:07;;;;;;;33.13;18.92;;;;;;;12.39;65.16;101115.39;1758041;81;21780;-43
2021/10/16 08:34:34;;;;;;;38.10;16.95;;;;;;;12.57;64.20;101104.28;1757683;81;20880;-43
2021/10/16 08:37:01;;;;;;;36.28;17.75;;;;;;;12.71;63.18;101103.62;1757768;81;20999;-43
2021/10/16 08:39:27;;;;;;;34.05;17.48;;;;;;;12.86;62.78;101107.69;1757735;81;21034;-43
2021/10/16 08:41:56;;;;;;;38.42;18.42;;;;;;;12.99;61.42;101112.66;1757784;81;20841;-43
2021/10/16 08:44:26;;;;;;;44.98;18.25;;;;;;;13.06;61.70;101119.02;1704825;81;20976;-43
2021/10/16 08:46:54;;;;;;;55.70;20.40;;;;;;;13.01;60.54;101126.47;1757710;81;21478;-43
2021/10/16 08:49:21;;;;;;;61.85;21.60;;;;;;;13.02;60.69;101123.86;1758005;81;21026;-43
2021/10/16 08:51:49;;;;;;;62.35;20.90;;;;;;;13.08;60.71;101123.74;1757796;81;20928;-44
2021/10/16 08:54:15;;;;;;;52.35;21.50;;;;;;;13.15;60.56;101130.98;1758073;81;20939;-43
2021/10/16 08:56:42;;;;;;;51.92;20.68;;;;;;;13.22;60.57;101132.58;1757786;81;21792;-44
2021/10/16 08:59:08;;;;;;;42.98;19.23;;;;;;;13.33;60.51;101138.04;1717154;82;20905;-44
2021/10/16 09:01:59;;;;;;;49.83;19.25;;;;;;;13.43;60.49;101137.00;1736115;82;20901;-44
2021/10/16 09:04:26;;;;;;;46.83;19.82;;;;;;;13.55;60.54;101135.06;1735884;81;20928;-44
2021/10/16 09:06:53;;;;;;;44.95;19.00;;;;;;;13.69;59.25;101129.57;1736275;82;21383;-44
2021/10/16 09:09:28;;;;;;;46.40;18.50;;;;;;;13.77;58.31;101125.92;1736102;82;21766;-44
2021/10/16 09:11:55;;;;;;;47.05;19.02;;;;;;;13.78;57.96;101113.75;1736288;82;21322;-45
2021/10/16 09:14:26;;;;;;;46.53;19.02;;;;;;;13.88;57.88;101112.66;1736142;82;21122;-44
2021/10/16 09:17:01;;;;;;;40.45;16.77;;;;;;;14.03;57.87;101108.02;1736228;82;20984;-44
2021/10/16 09:19:35;;;;;;;47.03;15.05;;;;;;;14.34;56.81;101109.47;1736167;81;20909;-44
2021/10/16 09:22:06;;;;;;;41.48;17.30;;;;;;;14.62;56.20;101101.41;1736072;82;21167;-44
2021/10/16 09:24:36;;;;;;;34.10;15.00;;;;;;;14.92;54.46;101103.72;1735891;82;21009;-44
2021/10/16 09:27:06;;;;;;;29.77;14.33;;;;;;;15.16;53.39;101106.56;1715311;82;20973;-44
2021/10/16 09:29:40;;;;;;;35.83;14.90;;;;;;;15.33;50.94;101100.03;1713792;82;20901;-44
2021/10/16 09:32:13;;;;;;;37.17;13.10;;;;;;;15.18;50.93;101096.11;1713998;82;21012;-44
2021/10/16 09:34:43;;;;;;;32.65;13.88;;;;;;;15.23;50.61;101093.75;1735304;82;21144;-45
2021/10/16 09:37:13;;;;;;;27.02;10.98;;;;;;;15.41;50.12;101090.67;1736240;81;20932;-44
2021/10/16 09:39:53;;;;;;;24.27;8.98;;;;;;;15.63;47.88;101085.23;1735873;81;20936;-44
2021/10/16 09:42:45;;;;;;;15.70;10.13;;;;;;;15.87;46.79;101080.17;1736271;82;21080;-44
2021/10/16 09:45:14;;;;;;;22.35;11.30;;;;;;;16.04;45.94;101072.31;1736553;82;20980;-44
2021/10/16 09:47:56;;;;;;;26.93;14.13;;;;;;;16.21;46.38;101062.19;1736266;82;20838;-44
2021/10/16 09:50:23;;;;;;;13.22;9.60;;;;;;;16.33;46.28;101060.06;1736040;82;20980;-44
2021/10/16 09:52:51;;;;;;;20.62;10.75;;;;;;;16.43;45.36;101056.70;1736043;82;20949;-44
2021/10/16 09:55:17;;;;;;;23.77;12.53;;;;;;;16.47;45.52;101051.77;1736401;82;20902;-44
2021/10/16 09:57:46;;;;;;;16.87;10.63;;;;;;;16.45;45.66;101053.14;1738301;81;20968;-44
2021/10/16 10:00:16;;;;;;;22.60;13.13;;;;;;;16.46;46.08;101048.75;1750248;82;21136;-44
2021/10/16 10:02:51;;;;;;;16.93;10.72;;;;;;;16.50;45.89;101042.08;1750235;82;20971;-44
2021/10/16 10:05:17;;;;;;;16.37;9.33;;;;;;;16.55;45.71;101040.63;1722702;82;20987;-44
2021/10/16 10:07:44;;;;;;;14.40;8.70;;;;;;;16.49;45.35;101046.03;1750097;82;20948;-44
2021/10/16 10:10:10;;;;;;;11.75;7.90;;;;;;;16.48;44.42;101044.33;1750436;82;21418;-44
2021/10/16 10:12:37;;;;;;;15.08;9.55;;;;;;;16.59;44.05;101035.69;1750405;82;21525;-44
2021/10/16 10:15:06;;;;;;;14.93;8.48;;;;;;;16.63;43.77;101034.67;1750072;82;21362;-44
2021/10/16 10:17:35;;;;;;;12.28;7.67;;;;;;;16.61;43.99;101036.92;1723432;82;20921;-44
2021/10/16 10:20:06;;;;;;;12.88;8.03;;;;;;;16.55;44.34;101033.22;1750135;82;20857;-45
2021/10/16 10:22:35;;;;;;;13.22;8.50;;;;;;;16.48;43.32;101036.05;1723252;82;20909;-45
2021/10/16 10:25:13;;;;;;;13.05;8.03;;;;;;;16.38;43.23;101032.02;1750190;82;21209;-44
2021/10/16 10:27:44;;;;;;;16.40;9.08;;;;;;;16.20;43.29;101034.37;1750261;81;20945;-45
2021/10/16 10:30:39;;;;;;;27.05;16.10;;;;;;;16.06;43.20;101024.38;1750187;81;21587;-44
2021/10/16 10:33:22;;;;;;;45.98;25.72;;;;;;;16.01;43.54;101021.03;1671205;84;20992;-45
2021/10/16 10:36:09;;;;;;;15.15;9.85;;;;;;;15.93;44.47;101016.08;1695026;84;20870;-45
2021/10/16 10:38:39;;;;;;;16.40;8.80;;;;;;;15.85;43.64;101011.97;1705138;82;21260;-45
2021/10/16 10:41:29;;;;;;;19.55;9.45;;;;;;;15.73;44.22;101014.05;1750021;82;20948;-46
2021/10/16 10:43:55;;;;;;;9.50;6.80;;;;;;;15.72;44.96;101009.73;1750282;82;20921;-44
2021/10/16 10:46:24;;;;;;;8.13;6.03;;;;;;;15.73;44.76;101001.00;1750333;82;21410;-45
2021/10/16 10:48:51;;;;;;;9.23;5.08;;;;;;;15.76;44.98;101001.36;1750368;82;20928;-45
2021/10/16 10:51:28;;;;;;;8.40;5.17;;;;;;;15.74;43.78;100994.88;1750246;82;21112;-45
2021/10/16 10:54:18;;;;;;;8.93;5.60;;;;;;;15.66;44.21;100999.48;1749910;82;20932;-45
2021/10/16 10:56:52;;;;;;;14.30;5.45;;;;;;;15.62;44.33;100992.66;1722657;82;21482;-44
2021/10/16 10:59:17;;;;;;;9.70;5.72;;;;;;;15.59;44.40;100988.85;1749761;81;20931;-44
2021/10/16 11:01:50;;;;;;;7.65;5.75;;;;;;;15.55;44.67;100988.08;1722303;82;20937;-44
2021/10/16 11:04:35;;;;;;;11.20;5.17;;;;;;;15.52;44.85;100987.71;1722465;82;21827;-45
2021/10/16 11:07:05;;;;;;;8.10;5.53;;;;;;;15.45;44.83;100983.59;1750018;82;20865;-45
2021/10/16 11:09:32;;;;;;;8.78;5.80;;;;;;;15.41;44.77;100981.11;1750053;82;20896;-45
2021/10/16 11:11:59;;;;;;;20.02;10.28;;;;;;;15.36;44.28;100983.41;1750052;82;20936;-44
2021/10/16 11:14:32;;;;;;;18.60;8.03;;;;;;;15.34;44.66;100983.08;1722396;82;20854;-45
2021/10/16 11:17:02;;;;;;;11.45;5.05;;;;;;;15.35;45.07;100983.48;1749670;82;21126;-45
2021/10/16 11:19:29;;;;;;;9.28;6.33;;;;;;;15.31;45.28;100989.22;1743251;82;21249;-45